ADDS METAR Data INFO
IDs: Format: Raw Decoded Include TAF

Data at: 0456 UTC 20 Apr 2018

KGON 200356Z AUTO 30010G18KT 10SM OVC075 03/M02 A2990 RMK AO2 SLP125 T00331017